Terminal Aerodrome Forecast
Issued by NWS

Home | Current Version | Previous Version | Text Only | Print | Product List | Glossary Off
Versions: 1 2 3 4 5 6 7 8 9 10 11 12 13 14 15 16

000
FTUS42 KMHX 271300 AAA
TAFPGV
TAF AMD
KPGV 271307Z 2713/2812 34010G16KT P6SM SCT007 OVC015
      TEMPO 2713/2715 2SM -SN BKN007
     FM271800 33010KT P6SM OVC035
     FM272100 34005KT P6SM SCT040
      AMD LTD TO CLD VIS AND WIND=

USA.gov is the U.S. government's official web portal to all federal, state and local government web resources and services.